Britt, Canada
Current Conditions -  °F | °C
As of 7:41 AM on Saturday 20 Dec 2014 (Local Time) from CYSB Reporting Station
Moderate Fog Moderate Fog  
Wind Chill:   Ceiling: 100
Heat Index:   Visibility: 0.5mi
Dew Point:   Wind: 3mph
Humidity: 85%   Direction: 10°N
Pressure: 30.28"   Gusts: NA
Location:  45.78°N, 80.53°W
Report Text: CYSB 201241Z 01003KT 330V030 1/2SM R22/P6000FT/N FZFG VV001 M16/M18 A3028 RMK FG8 VIS NW-NE 2 1/2 SLP283
Loading
Personal Weather Stations






























Interactive Weather Map New forecast layout! Learn more

10-Day Weather Forecast

Advertisements
Track Severe Weather on mobile